createdAt,value
2023-05-19T00:02:12.667Z,7.62
2023-05-19T00:05:18.583Z,7.58
2023-05-19T00:08:22.736Z,7.57
2023-05-19T00:11:26.936Z,7.48
2023-05-19T00:14:29.154Z,7.49
2023-05-19T00:17:31.100Z,7.49
2023-05-19T00:20:33.241Z,7.59
2023-05-19T00:23:35.454Z,7.66
2023-05-19T00:26:37.352Z,7.74
2023-05-19T00:29:39.344Z,7.90
2023-05-19T00:32:41.265Z,7.96
2023-05-19T00:35:43.166Z,7.95
2023-05-19T00:38:45.066Z,7.84
2023-05-19T00:41:46.939Z,7.74
2023-05-19T00:44:48.872Z,7.63
2023-05-19T00:47:50.853Z,7.57
2023-05-19T00:51:02.280Z,7.46
2023-05-19T00:54:04.754Z,7.45
2023-05-19T00:57:06.952Z,7.48
2023-05-19T01:00:09.501Z,7.41
2023-05-19T01:03:12.118Z,7.31
2023-05-19T01:06:15.097Z,7.23
2023-05-19T01:09:18.259Z,7.34
2023-05-19T01:12:20.302Z,7.31
2023-05-19T01:15:23.984Z,7.28
2023-05-19T01:18:38.511Z,7.31
2023-05-19T01:22:14.513Z,7.26
2023-05-19T01:25:31.584Z,7.11
2023-05-19T01:29:10.936Z,7.12
2023-05-19T01:32:16.108Z,7.10
2023-05-19T01:35:19.187Z,7.04
2023-05-19T01:38:22.246Z,7.12
2023-05-19T01:41:25.835Z,7.10
2023-05-19T01:44:28.897Z,7.12
2023-05-19T01:47:31.096Z,7.16
2023-05-19T01:50:33.930Z,7.22
2023-05-19T01:53:36.357Z,7.33
2023-05-19T01:56:58.394Z,7.32
2023-05-19T02:00:12.938Z,7.24
2023-05-19T02:03:21.847Z,7.31
2023-05-19T02:06:46.185Z,7.24
2023-05-19T02:09:56.493Z,7.19
2023-05-19T02:13:04.471Z,7.07
2023-05-19T02:16:07.645Z,7.01
2023-05-19T02:19:22.975Z,6.99
2023-05-19T02:22:25.348Z,7.04
2023-05-19T02:25:27.282Z,6.92
2023-05-19T02:28:29.202Z,6.85
2023-05-19T02:31:31.212Z,6.99
2023-05-19T02:34:33.184Z,6.93
2023-05-19T02:37:35.429Z,6.98
2023-05-19T02:40:37.314Z,6.91
2023-05-19T02:43:39.134Z,6.84
2023-05-19T02:46:41.106Z,6.88
2023-05-19T02:49:44.236Z,6.93
2023-05-19T02:52:46.126Z,6.92
2023-05-19T02:55:48.117Z,6.83
2023-05-19T02:58:50.032Z,6.88
2023-05-19T03:01:55.724Z,6.90
2023-05-19T03:04:57.918Z,6.97
2023-05-19T03:07:59.792Z,6.89
2023-05-19T03:11:02.576Z,6.83
2023-05-19T03:14:04.420Z,6.89
2023-05-19T03:17:10.327Z,6.98
2023-05-19T03:20:12.509Z,6.94
2023-05-19T03:23:14.359Z,6.87
2023-05-19T03:26:16.220Z,7.00
2023-05-19T03:29:18.113Z,7.11
2023-05-19T03:32:20.058Z,7.11
2023-05-19T03:35:22.062Z,7.12
2023-05-19T03:38:24.128Z,7.35
2023-05-19T03:41:26.061Z,7.39
2023-05-19T03:44:27.918Z,7.59
2023-05-19T03:47:31.804Z,7.82
2023-05-19T03:50:34.195Z,8.07
2023-05-19T03:53:36.228Z,8.34
2023-05-19T03:56:41.086Z,8.50
2023-05-19T03:59:44.012Z,8.63
2023-05-19T04:02:45.949Z,8.81
2023-05-19T04:05:47.943Z,9.01
2023-05-19T04:08:57.351Z,9.23
2023-05-19T04:11:59.852Z,9.42
2023-05-19T04:15:01.834Z,9.62
2023-05-19T04:18:03.866Z,10.03
2023-05-19T04:21:06.034Z,10.32
2023-05-19T04:24:07.965Z,10.62
2023-05-19T04:27:12.265Z,10.94
2023-05-19T04:30:18.525Z,11.36
2023-05-19T04:33:21.527Z,11.61
2023-05-19T04:36:24.059Z,11.80
2023-05-19T04:39:25.943Z,11.93
2023-05-19T04:42:33.095Z,11.97
2023-05-19T04:45:37.769Z,11.74
2023-05-19T04:48:42.776Z,12.22
2023-05-19T04:51:46.262Z,12.48
2023-05-19T04:54:48.093Z,12.54
2023-05-19T04:57:49.901Z,12.80
2023-05-19T05:00:52.463Z,13.11
2023-05-19T05:03:59.221Z,13.55
2023-05-19T05:07:01.325Z,13.90
2023-05-19T05:10:04.033Z,14.23
2023-05-19T05:13:06.674Z,14.85
2023-05-19T05:16:09.332Z,14.82
2023-05-19T05:19:11.604Z,15.31
2023-05-19T05:22:13.903Z,15.32
2023-05-19T05:25:16.477Z,16.08
2023-05-19T05:28:18.691Z,16.00
2023-05-19T05:31:33.284Z,15.92
2023-05-19T05:34:37.993Z,16.69
2023-05-19T05:37:40.245Z,17.05
2023-05-19T05:40:42.168Z,17.17
2023-05-19T05:43:44.124Z,16.67
2023-05-19T05:46:46.422Z,16.92
2023-05-19T05:49:48.772Z,18.32
2023-05-19T05:52:51.088Z,17.64
2023-05-19T05:55:53.644Z,18.00
2023-05-19T05:58:55.556Z,17.58
2023-05-19T06:01:57.522Z,18.34
2023-05-19T06:04:59.454Z,18.77
2023-05-19T06:08:01.642Z,19.15
2023-05-19T06:11:09.050Z,19.72
2023-05-19T06:14:11.103Z,19.36
2023-05-19T06:17:13.013Z,19.51
2023-05-19T06:20:14.952Z,19.56
2023-05-19T06:23:16.843Z,19.26
2023-05-19T06:26:18.774Z,19.64
2023-05-19T06:29:20.727Z,18.64
2023-05-19T06:32:22.658Z,18.54
2023-05-19T06:35:24.634Z,19.07
2023-05-19T06:38:26.670Z,19.16
2023-05-19T06:41:28.558Z,19.68
2023-05-19T06:44:30.627Z,20.13
2023-05-19T06:47:32.652Z,20.37
2023-05-19T06:50:34.753Z,20.46
2023-05-19T06:53:36.874Z,19.80
2023-05-19T06:56:38.925Z,20.68
2023-05-19T06:59:43.914Z,20.40
2023-05-19T07:02:45.966Z,19.86
2023-05-19T07:05:47.946Z,20.98
2023-05-19T07:08:49.770Z,20.94
2023-05-19T07:11:52.021Z,22.05
2023-05-19T07:14:53.844Z,22.06
2023-05-19T07:17:55.814Z,21.41
2023-05-19T07:20:58.549Z,21.70
2023-05-19T07:24:00.461Z,22.36
2023-05-19T07:27:02.456Z,22.02
2023-05-19T07:30:04.844Z,23.23
2023-05-19T07:33:06.988Z,23.39
2023-05-19T07:36:09.337Z,23.69
2023-05-19T07:39:11.352Z,23.65
2023-05-19T07:42:13.275Z,24.26
2023-05-19T07:45:15.146Z,24.84
2023-05-19T07:48:18.846Z,23.88
2023-05-19T07:51:20.928Z,25.33
2023-05-19T07:54:22.877Z,25.14
2023-05-19T07:57:24.829Z,24.64
2023-05-19T08:00:26.867Z,24.72
2023-05-19T08:03:30.706Z,25.87
2023-05-19T08:06:32.835Z,25.12
2023-05-19T08:09:34.694Z,26.27
2023-05-19T08:12:36.586Z,26.40
2023-05-19T08:15:38.508Z,26.58
2023-05-19T08:18:40.493Z,26.11
2023-05-19T08:21:42.903Z,26.07
2023-05-19T08:24:45.195Z,27.06
2023-05-19T08:27:47.064Z,26.78
2023-05-19T08:30:50.871Z,26.73
2023-05-19T08:33:52.865Z,27.13
2023-05-19T08:36:57.783Z,25.65
2023-05-19T08:39:59.687Z,25.60
2023-05-19T08:43:01.576Z,26.59
2023-05-19T08:46:04.120Z,25.19
2023-05-19T08:49:12.358Z,25.75
2023-05-19T08:52:23.507Z,27.17
2023-05-19T08:55:38.783Z,25.08
2023-05-19T08:58:42.688Z,26.28
2023-05-19T09:01:46.293Z,27.20
2023-05-19T09:04:48.843Z,27.17
2023-05-19T09:07:50.683Z,27.22
2023-05-19T09:10:52.601Z,27.77
2023-05-19T09:13:54.601Z,26.37
2023-05-19T09:16:56.748Z,24.86
2023-05-19T09:20:03.345Z,26.92
2023-05-19T09:23:06.049Z,27.34
2023-05-19T09:26:08.263Z,27.61
2023-05-19T09:29:17.475Z,27.89
2023-05-19T09:32:26.896Z,27.96
2023-05-19T09:35:29.154Z,27.39
2023-05-19T09:38:31.150Z,26.54
2023-05-19T09:41:33.336Z,27.13
2023-05-19T09:44:35.489Z,27.16
2023-05-19T09:47:38.782Z,25.80
2023-05-19T09:50:40.770Z,26.90
2023-05-19T09:53:46.417Z,25.71
2023-05-19T09:57:01.550Z,25.41
2023-05-19T10:00:12.486Z,27.10
2023-05-19T10:03:16.556Z,26.05
2023-05-19T10:06:19.189Z,26.54
2023-05-19T10:09:27.410Z,26.54
2023-05-19T10:12:31.179Z,27.20
2023-05-19T10:15:40.706Z,26.32
2023-05-19T10:18:46.265Z,26.65
2023-05-19T10:21:48.676Z,26.70
2023-05-19T10:24:50.790Z,26.31
2023-05-19T10:28:01.410Z,26.04
2023-05-19T10:31:06.708Z,25.93
2023-05-19T10:34:37.600Z,26.42
2023-05-19T10:38:10.596Z,25.32
2023-05-19T10:42:08.189Z,26.57
2023-05-19T10:45:21.019Z,26.46
2023-05-19T10:48:25.768Z,26.87
2023-05-19T10:51:37.258Z,26.42
2023-05-19T10:54:46.915Z,25.79
2023-05-19T10:57:58.274Z,24.96
2023-05-19T11:01:02.918Z,26.24
2023-05-19T11:04:07.533Z,26.30
2023-05-19T11:07:10.529Z,25.96
2023-05-19T11:10:12.806Z,24.45
2023-05-19T11:13:23.668Z,24.50
2023-05-19T11:16:34.879Z,25.93
2023-05-19T11:19:36.996Z,25.75
2023-05-19T11:22:40.094Z,25.88
2023-05-19T11:25:47.274Z,25.92
2023-05-19T11:28:52.222Z,26.02
2023-05-19T11:31:56.086Z,25.96
2023-05-19T11:34:58.191Z,24.98
2023-05-19T11:38:01.726Z,24.54
2023-05-19T11:41:04.357Z,24.14
2023-05-19T11:44:11.327Z,24.37
2023-05-19T11:47:17.235Z,22.22
2023-05-19T11:50:20.340Z,24.25
2023-05-19T11:53:23.284Z,24.52
2023-05-19T11:56:25.188Z,24.97
2023-05-19T11:59:35.958Z,25.12
2023-05-19T12:02:38.283Z,24.94
2023-05-19T12:05:45.553Z,24.00
2023-05-19T12:08:47.873Z,23.14
2023-05-19T12:11:50.995Z,23.66
2023-05-19T12:14:53.381Z,23.82
2023-05-19T12:18:00.832Z,23.94
2023-05-19T12:21:03.071Z,23.27
2023-05-19T12:24:06.512Z,24.23
2023-05-19T12:27:13.672Z,24.29
2023-05-19T12:30:17.095Z,24.26
2023-05-19T12:33:19.792Z,22.89
2023-05-19T12:36:25.210Z,22.95
2023-05-19T12:39:27.642Z,23.55
2023-05-19T12:42:31.373Z,23.98
2023-05-19T12:45:37.446Z,24.11
2023-05-19T12:48:47.039Z,23.61
2023-05-19T12:51:53.814Z,23.72
2023-05-19T12:55:05.174Z,23.36
2023-05-19T12:58:10.875Z,22.85
2023-05-19T13:01:20.806Z,22.92
2023-05-19T13:04:23.252Z,23.01
2023-05-19T13:07:25.538Z,23.18
2023-05-19T13:10:28.623Z,23.03
2023-05-19T13:13:30.639Z,22.86
2023-05-19T13:16:34.826Z,22.41
2023-05-19T13:19:36.871Z,22.80
2023-05-19T13:22:38.780Z,22.55
2023-05-19T13:25:42.146Z,22.47
2023-05-19T13:28:44.160Z,21.91
2023-05-19T13:31:46.284Z,21.99
2023-05-19T13:34:48.134Z,22.21
2023-05-19T13:37:50.270Z,22.42
2023-05-19T13:40:52.156Z,22.17
2023-05-19T13:43:54.033Z,21.83
2023-05-19T13:46:56.128Z,21.91
2023-05-19T13:49:58.157Z,21.99
2023-05-19T13:53:00.203Z,21.96
2023-05-19T13:56:02.556Z,21.63
2023-05-19T13:59:04.936Z,21.68
2023-05-19T14:02:07.219Z,21.79
2023-05-19T14:05:09.379Z,21.51
2023-05-19T14:08:11.648Z,21.66
2023-05-19T14:11:20.014Z,21.70
2023-05-19T14:14:21.830Z,21.13
2023-05-19T14:17:24.062Z,21.42
2023-05-19T14:20:27.858Z,21.22
2023-05-19T14:23:32.375Z,20.89
2023-05-19T14:26:34.275Z,21.24
2023-05-19T14:29:36.123Z,21.34
2023-05-19T14:32:38.077Z,21.31
2023-05-19T14:35:40.506Z,21.18
2023-05-19T14:38:42.374Z,21.08
2023-05-19T14:41:44.335Z,21.20
2023-05-19T14:44:46.164Z,21.23
2023-05-19T14:47:48.151Z,20.75
2023-05-19T14:50:50.316Z,20.86
2023-05-19T14:53:52.228Z,21.01
2023-05-19T14:56:54.153Z,21.02
2023-05-19T14:59:56.124Z,20.58
2023-05-19T15:02:58.037Z,20.80
2023-05-19T15:06:00.180Z,20.71
2023-05-19T15:09:02.103Z,20.88
2023-05-19T15:12:03.991Z,20.91
2023-05-19T15:15:06.471Z,20.78
2023-05-19T15:18:08.468Z,20.62
2023-05-19T15:21:10.424Z,20.67
2023-05-19T15:24:12.451Z,20.69
2023-05-19T15:27:14.614Z,20.55
2023-05-19T15:30:16.576Z,20.55
2023-05-19T15:33:18.514Z,20.71
2023-05-19T15:36:20.603Z,20.29
2023-05-19T15:39:22.467Z,19.99
2023-05-19T15:42:24.425Z,20.13
2023-05-19T15:45:26.450Z,20.37
2023-05-19T15:48:29.158Z,20.46
2023-05-19T15:51:31.645Z,20.19
2023-05-19T15:54:33.503Z,20.21
2023-05-19T15:57:35.314Z,20.29
2023-05-19T16:00:37.420Z,20.04
2023-05-19T16:03:39.367Z,19.97
2023-05-19T16:06:41.288Z,20.02
2023-05-19T16:09:43.209Z,19.72
2023-05-19T16:12:45.080Z,19.83
2023-05-19T16:15:47.539Z,19.97
2023-05-19T16:18:49.496Z,19.96
2023-05-19T16:21:51.374Z,19.96
2023-05-19T16:24:53.249Z,19.97
2023-05-19T16:27:55.129Z,19.94
2023-05-19T16:31:00.863Z,19.89
2023-05-19T16:34:02.757Z,19.81
2023-05-19T16:37:04.878Z,19.55
2023-05-19T16:40:07.539Z,19.87
2023-05-19T16:43:09.441Z,20.00
2023-05-19T16:46:12.345Z,19.96
2023-05-19T16:49:14.310Z,19.90
2023-05-19T16:52:16.317Z,19.93
2023-05-19T16:55:20.100Z,19.79
2023-05-19T16:58:22.081Z,19.82
2023-05-19T17:01:24.198Z,19.63
2023-05-19T17:04:27.544Z,19.44
2023-05-19T17:07:31.220Z,19.57
2023-05-19T17:10:33.445Z,19.48
2023-05-19T17:13:36.498Z,19.49
2023-05-19T17:16:38.353Z,19.43
2023-05-19T17:19:40.498Z,19.42
2023-05-19T17:22:42.369Z,19.37
2023-05-19T17:25:44.324Z,19.18
2023-05-19T17:28:47.718Z,19.11
2023-05-19T17:31:50.797Z,18.91
2023-05-19T17:34:52.823Z,18.81
2023-05-19T17:37:55.381Z,18.75
2023-05-19T17:41:01.774Z,18.69
2023-05-19T17:44:04.161Z,18.65
2023-05-19T17:47:08.080Z,18.50
2023-05-19T17:50:10.399Z,18.28
2023-05-19T17:53:12.539Z,18.14
2023-05-19T17:56:14.636Z,17.97
2023-05-19T17:59:16.680Z,17.87
2023-05-19T18:02:19.277Z,17.72
2023-05-19T18:05:21.541Z,17.63
2023-05-19T18:08:23.882Z,17.49
2023-05-19T18:11:26.580Z,17.34
2023-05-19T18:14:28.576Z,17.36
2023-05-19T18:17:30.496Z,17.45
2023-05-19T18:20:33.958Z,17.27
2023-05-19T18:23:36.171Z,17.31
2023-05-19T18:26:41.809Z,17.40
2023-05-19T18:29:43.806Z,17.29
2023-05-19T18:32:45.737Z,17.21
2023-05-19T18:35:47.713Z,17.21
2023-05-19T18:38:50.115Z,17.20
2023-05-19T18:41:52.028Z,17.04
2023-05-19T18:44:53.972Z,16.90
2023-05-19T18:47:56.358Z,16.89
2023-05-19T18:50:58.266Z,16.96
2023-05-19T18:54:00.177Z,16.90
2023-05-19T18:57:03.570Z,17.00
2023-05-19T19:00:06.112Z,16.94
2023-05-19T19:03:10.327Z,16.98
2023-05-19T19:06:12.709Z,16.98
2023-05-19T19:09:14.943Z,16.66
2023-05-19T19:12:18.293Z,16.66
2023-05-19T19:15:21.328Z,16.56
2023-05-19T19:18:23.259Z,16.55
2023-05-19T19:21:25.856Z,16.48
2023-05-19T19:24:28.568Z,16.45
2023-05-19T19:27:31.544Z,16.41
2023-05-19T19:30:33.600Z,16.36
2023-05-19T19:33:35.642Z,16.18
2023-05-19T19:36:37.490Z,15.94
2023-05-19T19:39:39.530Z,15.97
2023-05-19T19:42:43.416Z,15.85
2023-05-19T19:45:48.062Z,15.81
2023-05-19T19:48:58.609Z,15.70
2023-05-19T19:52:00.636Z,15.59
2023-05-19T19:55:02.862Z,15.45
2023-05-19T19:58:04.830Z,15.48
2023-05-19T20:01:08.216Z,15.11
2023-05-19T20:04:10.313Z,15.08
2023-05-19T20:07:12.658Z,15.14
2023-05-19T20:10:14.516Z,15.03
2023-05-19T20:13:17.280Z,14.92
2023-05-19T20:16:19.698Z,14.83
2023-05-19T20:19:21.867Z,14.83
2023-05-19T20:22:23.897Z,14.64
2023-05-19T20:25:26.205Z,14.54
2023-05-19T20:28:28.105Z,14.53
2023-05-19T20:31:30.642Z,14.49
2023-05-19T20:34:32.653Z,14.67
2023-05-19T20:37:34.649Z,14.68
2023-05-19T20:40:37.969Z,14.47
2023-05-19T20:43:40.096Z,14.46
2023-05-19T20:46:45.610Z,14.36
2023-05-19T20:49:48.796Z,14.35
2023-05-19T20:53:04.604Z,14.38
2023-05-19T20:56:10.676Z,14.45
2023-05-19T20:59:12.939Z,14.40
2023-05-19T21:02:20.189Z,14.22
2023-05-19T21:05:23.228Z,14.07
2023-05-19T21:08:31.671Z,14.02
2023-05-19T21:11:39.316Z,14.05
2023-05-19T21:14:41.605Z,14.05
2023-05-19T21:17:57.990Z,14.19
2023-05-19T21:21:10.234Z,14.16
2023-05-19T21:24:13.251Z,14.08
2023-05-19T21:27:15.725Z,14.33
2023-05-19T21:30:18.708Z,14.38
2023-05-19T21:33:20.868Z,14.54
2023-05-19T21:36:29.932Z,14.63
2023-05-19T21:39:32.131Z,14.54
2023-05-19T21:42:35.940Z,14.75
2023-05-19T21:45:38.013Z,14.85
2023-05-19T21:48:44.781Z,14.90
2023-05-19T21:51:49.685Z,14.86
2023-05-19T21:54:56.197Z,14.84
2023-05-19T21:58:00.874Z,14.86
2023-05-19T22:01:04.665Z,14.91
2023-05-19T22:04:10.350Z,14.84
2023-05-19T22:07:12.276Z,14.79
2023-05-19T22:10:14.197Z,14.74
2023-05-19T22:13:16.110Z,14.69
2023-05-19T22:16:18.019Z,14.67
2023-05-19T22:19:20.074Z,14.60
2023-05-19T22:22:24.423Z,14.55
2023-05-19T22:25:26.369Z,14.39
2023-05-19T22:28:28.229Z,14.44
2023-05-19T22:31:30.082Z,14.39
2023-05-19T22:34:32.061Z,14.35
2023-05-19T22:37:34.208Z,14.18
2023-05-19T22:40:36.266Z,14.15
2023-05-19T22:43:38.287Z,14.11
2023-05-19T22:46:40.098Z,14.08
2023-05-19T22:49:42.625Z,13.96
2023-05-19T22:52:44.441Z,13.82
2023-05-19T22:55:46.524Z,13.79
2023-05-19T22:58:48.450Z,13.61
2023-05-19T23:01:50.561Z,13.52
2023-05-19T23:04:52.494Z,13.53
2023-05-19T23:07:54.352Z,13.46
2023-05-19T23:11:00.612Z,13.10
2023-05-19T23:14:02.581Z,12.88
2023-05-19T23:17:04.720Z,12.93
2023-05-19T23:20:07.383Z,12.81
2023-05-19T23:23:09.287Z,12.74
2023-05-19T23:26:13.416Z,12.72
2023-05-19T23:29:15.346Z,12.81
2023-05-19T23:32:17.257Z,12.58
2023-05-19T23:35:20.135Z,12.60
2023-05-19T23:38:22.497Z,12.68
2023-05-19T23:41:24.314Z,12.71
2023-05-19T23:44:27.300Z,12.69
2023-05-19T23:47:29.242Z,12.77
2023-05-19T23:50:31.190Z,12.82
2023-05-19T23:53:33.011Z,12.82
2023-05-19T23:56:34.954Z,12.79
2023-05-19T23:59:36.840Z,12.81
